createdAt,value
2019-03-01T00:03:32.292Z,7.02
2019-03-01T00:08:41.214Z,8.02
2019-03-01T00:13:51.906Z,7.94
2019-03-01T00:18:50.744Z,6.62
2019-03-01T00:23:59.621Z,6.45
2019-03-01T00:29:08.533Z,6.59
2019-03-01T00:34:17.395Z,6.40
2019-03-01T00:39:26.618Z,6.60
2019-03-01T00:44:34.027Z,6.93
2019-03-01T00:49:42.931Z,8.14
2019-03-01T00:54:51.767Z,8.57
2019-03-01T01:00:00.661Z,9.22
2019-03-01T01:05:09.506Z,10.44
2019-03-01T01:10:18.343Z,11.52
2019-03-01T01:15:27.911Z,11.26
2019-03-01T01:20:36.792Z,11.92
2019-03-01T01:25:45.640Z,11.62
2019-03-01T01:30:54.494Z,11.73
2019-03-01T01:36:03.397Z,12.29
2019-03-01T01:41:12.270Z,12.62
2019-03-01T01:46:21.120Z,12.57
2019-03-01T01:51:30.029Z,13.87
2019-03-01T01:56:38.913Z,14.16
2019-03-01T02:01:47.839Z,13.85
2019-03-01T02:06:56.701Z,12.96
2019-03-01T02:12:05.573Z,13.37
2019-03-01T02:17:14.407Z,12.77
2019-03-01T02:22:23.264Z,12.88
2019-03-01T02:27:32.111Z,12.93
2019-03-01T02:32:39.572Z,12.94
2019-03-01T02:37:48.506Z,12.93
2019-03-01T02:42:57.394Z,13.86
2019-03-01T02:48:06.287Z,13.61
2019-03-01T02:53:15.181Z,13.46
2019-03-01T02:58:24.096Z,13.27
2019-03-01T03:03:32.951Z,13.49
2019-03-01T03:08:41.795Z,13.98
2019-03-01T03:13:50.643Z,14.17
2019-03-01T03:18:59.513Z,14.12
2019-03-01T03:24:08.472Z,15.05
2019-03-01T03:29:17.292Z,14.60
2019-03-01T03:34:26.195Z,15.19
2019-03-01T03:39:35.107Z,14.71
2019-03-01T03:44:43.971Z,14.83
2019-03-01T03:49:52.850Z,14.17
2019-03-01T03:55:01.746Z,14.14
2019-03-01T04:00:10.588Z,14.20
2019-03-01T04:05:19.488Z,15.13
2019-03-01T04:10:28.324Z,14.72
2019-03-01T04:15:37.174Z,14.65
2019-03-01T04:20:46.012Z,14.92
2019-03-01T04:25:54.877Z,15.39
2019-03-01T04:31:03.719Z,16.54
2019-03-01T04:36:12.734Z,19.88
2019-03-01T04:41:21.563Z,21.31
2019-03-01T04:46:30.515Z,20.53
2019-03-01T04:51:40.352Z,19.81
2019-03-01T04:56:47.757Z,20.26
2019-03-01T05:01:56.580Z,19.48
2019-03-01T05:07:05.407Z,19.54
2019-03-01T05:12:14.233Z,19.86
2019-03-01T05:17:23.093Z,18.98
2019-03-01T05:22:31.948Z,18.54
2019-03-01T05:27:40.823Z,17.50
2019-03-01T05:32:49.673Z,15.83
2019-03-01T05:37:58.525Z,14.58
2019-03-01T05:43:07.347Z,16.16
2019-03-01T05:48:16.215Z,16.28
2019-03-01T05:53:25.119Z,17.69
2019-03-01T05:58:33.955Z,17.86
2019-03-01T06:03:42.835Z,17.69
2019-03-01T06:08:51.712Z,17.55
2019-03-01T06:14:00.615Z,17.01
2019-03-01T06:19:09.554Z,17.67
2019-03-01T06:24:18.372Z,17.64
2019-03-01T06:29:27.220Z,16.63
2019-03-01T06:34:36.084Z,16.85
2019-03-01T06:39:44.941Z,16.32
2019-03-01T06:44:53.755Z,17.12
2019-03-01T06:50:02.612Z,16.46
2019-03-01T06:55:11.771Z,16.08
2019-03-01T07:00:20.621Z,16.06
2019-03-01T07:05:29.478Z,15.77
2019-03-01T07:10:38.508Z,16.20
2019-03-01T07:15:47.367Z,14.36
2019-03-01T07:20:56.248Z,15.56
2019-03-01T07:26:07.875Z,14.49
2019-03-01T07:31:07.172Z,14.43
2019-03-01T07:36:15.172Z,14.58
2019-03-01T07:41:24.068Z,18.06
2019-03-01T07:46:32.912Z,16.71
2019-03-01T07:51:41.797Z,12.49
2019-03-01T07:56:50.676Z,10.84
2019-03-01T08:02:00.737Z,12.35
2019-03-01T08:07:08.479Z,13.16
2019-03-01T08:12:16.532Z,13.50
2019-03-01T08:17:27.684Z,13.81
2019-03-01T08:22:33.867Z,14.69
2019-03-01T08:27:46.096Z,13.80
2019-03-01T08:32:51.128Z,14.63
2019-03-01T08:38:00.008Z,14.08
2019-03-01T08:43:12.018Z,13.67
2019-03-01T08:48:17.408Z,14.33
2019-03-01T08:53:26.951Z,14.36
2019-03-01T08:58:37.684Z,13.57
2019-03-01T09:03:44.552Z,13.86
2019-03-01T09:08:53.599Z,13.40
2019-03-01T09:14:03.048Z,14.05
2019-03-01T09:19:11.891Z,12.56
2019-03-01T09:24:25.628Z,11.37
2019-03-01T09:29:20.970Z,13.10
2019-03-01T09:34:33.021Z,12.31
2019-03-01T09:39:32.894Z,11.00
2019-03-01T09:44:34.645Z,10.21
2019-03-01T09:49:40.584Z,12.37
2019-03-01T09:54:49.612Z,10.39
2019-03-01T09:59:58.651Z,10.12
2019-03-01T10:05:08.166Z,9.50
2019-03-01T10:10:18.452Z,9.10
2019-03-01T10:15:17.610Z,8.70
2019-03-01T10:20:26.496Z,8.33
2019-03-01T10:25:35.800Z,7.99
2019-03-01T10:30:47.070Z,7.39
2019-03-01T10:35:45.996Z,7.42
2019-03-01T10:40:55.025Z,6.95
2019-03-01T10:46:03.990Z,6.00
2019-03-01T10:51:13.039Z,5.29
2019-03-01T10:56:22.291Z,5.75
2019-03-01T11:01:31.188Z,5.69
2019-03-01T11:06:40.078Z,5.77
2019-03-01T11:11:49.059Z,6.11
2019-03-01T11:16:58.179Z,6.09
2019-03-01T11:22:07.314Z,5.65
2019-03-01T11:27:16.419Z,6.27
2019-03-01T11:32:25.654Z,6.74
2019-03-01T11:37:34.803Z,7.21
2019-03-01T11:43:14.880Z,6.74
2019-03-01T11:47:43.851Z,7.80
2019-03-01T11:52:52.801Z,7.77
2019-03-01T11:58:01.644Z,7.90
2019-03-01T12:03:10.506Z,7.45
2019-03-01T12:08:19.835Z,7.11
2019-03-01T12:13:28.751Z,5.76
2019-03-01T12:18:38.439Z,5.95
2019-03-01T12:23:47.361Z,5.28
2019-03-01T12:28:56.190Z,5.17
2019-03-01T12:34:05.291Z,4.80
2019-03-01T12:39:37.267Z,5.15
2019-03-01T12:44:15.197Z,4.76
2019-03-01T12:49:24.242Z,4.62
2019-03-01T12:54:33.143Z,4.46
2019-03-01T12:59:42.288Z,5.34
2019-03-01T13:04:53.300Z,4.92
2019-03-01T13:10:03.376Z,3.72
2019-03-01T13:15:10.646Z,4.17
2019-03-01T13:20:16.645Z,5.00
2019-03-01T13:25:25.868Z,4.81
2019-03-01T13:30:35.880Z,5.08
2019-03-01T13:35:42.838Z,4.71
2019-03-01T13:40:51.805Z,4.78
2019-03-01T13:46:22.309Z,4.72
2019-03-01T13:51:19.425Z,4.60
2019-03-01T13:56:07.103Z,6.22
2019-03-01T14:01:16.036Z,10.37
2019-03-01T14:06:24.930Z,7.08
2019-03-01T14:11:33.841Z,6.17
2019-03-01T14:16:42.863Z,7.68
2019-03-01T14:21:51.776Z,6.30
2019-03-01T14:27:00.656Z,6.61
2019-03-01T14:32:09.666Z,6.83
2019-03-01T14:37:31.344Z,6.47
2019-03-01T14:42:20.449Z,6.27
2019-03-01T14:47:32.682Z,6.36
2019-03-01T14:52:39.018Z,5.66
2019-03-01T14:57:47.931Z,5.96
2019-03-01T15:02:56.874Z,5.81
2019-03-01T15:08:06.542Z,6.21
2019-03-01T15:13:14.467Z,5.31
2019-03-01T15:18:24.998Z,6.11
2019-03-01T15:23:31.873Z,5.78
2019-03-01T15:28:40.815Z,4.69
2019-03-01T15:33:49.770Z,5.00
2019-03-01T15:38:58.718Z,5.49
2019-03-01T15:44:08.002Z,4.59
2019-03-01T15:49:23.669Z,4.58
2019-03-01T15:54:17.754Z,3.37
2019-03-01T15:59:26.670Z,3.05
2019-03-01T16:04:35.714Z,3.53
2019-03-01T16:09:44.831Z,3.98
2019-03-01T16:15:01.898Z,8.85
2019-03-01T16:20:02.931Z,8.57
2019-03-01T16:25:02.160Z,8.80
2019-03-01T16:30:09.718Z,5.92
2019-03-01T16:35:18.690Z,4.80
2019-03-01T16:40:27.739Z,4.64
2019-03-01T16:45:36.852Z,4.46
2019-03-01T16:50:45.844Z,4.91
2019-03-01T16:55:54.835Z,4.66
2019-03-01T17:01:03.822Z,4.52
2019-03-01T17:06:13.712Z,4.52
2019-03-01T17:11:21.567Z,4.56
2019-03-01T17:16:30.527Z,4.19
2019-03-01T17:21:39.420Z,9.62
2019-03-01T17:26:48.336Z,4.74
2019-03-01T17:31:58.822Z,4.29
2019-03-01T17:37:13.309Z,6.62
2019-03-01T17:42:12.260Z,6.71
2019-03-01T17:47:19.897Z,6.99
2019-03-01T17:52:30.564Z,14.25
2019-03-01T17:57:40.192Z,4.69
2019-03-01T18:02:48.728Z,3.45
2019-03-01T18:07:56.330Z,3.75
2019-03-01T18:18:12.073Z,3.72
2019-03-01T18:23:14.202Z,3.87
2019-03-01T18:28:13.990Z,3.78
2019-03-01T18:33:31.092Z,3.96
2019-03-01T18:38:38.448Z,4.13
2019-03-01T18:43:40.612Z,3.48
2019-03-01T18:48:40.642Z,6.32
2019-03-01T18:53:49.419Z,7.60
2019-03-01T18:58:48.937Z,5.14
2019-03-01T19:04:04.270Z,5.30
2019-03-01T19:09:03.530Z,3.83
2019-03-01T19:14:10.985Z,3.28
2019-03-01T19:19:19.945Z,3.74
2019-03-01T19:24:30.238Z,3.97
2019-03-01T19:29:29.188Z,3.19
2019-03-01T19:34:38.870Z,3.82
2019-03-01T19:39:46.705Z,3.26
2019-03-01T19:45:00.756Z,3.35
2019-03-01T19:50:09.301Z,3.30
2019-03-01T19:54:57.867Z,3.24
2019-03-01T20:00:07.252Z,3.14
2019-03-01T20:05:15.463Z,3.55
2019-03-01T20:10:23.647Z,4.26
2019-03-01T20:15:32.640Z,3.83
2019-03-01T20:20:41.557Z,3.77
2019-03-01T20:25:51.066Z,3.52
2019-03-01T20:31:01.557Z,4.29
2019-03-01T20:36:09.174Z,3.86
2019-03-01T20:41:18.166Z,4.35
2019-03-01T20:46:27.287Z,4.17
2019-03-01T20:51:36.547Z,4.01
2019-03-01T20:56:48.011Z,4.35
2019-03-01T21:01:54.146Z,4.81
2019-03-01T21:07:03.156Z,3.92
2019-03-01T21:12:12.103Z,4.55
2019-03-01T21:17:21.902Z,4.57
2019-03-01T21:22:39.670Z,4.37
2019-03-01T21:27:35.650Z,4.17
2019-03-01T21:32:46.973Z,4.05
2019-03-01T21:37:53.281Z,4.40
2019-03-01T21:43:02.280Z,4.58
2019-03-01T21:48:11.370Z,4.77
2019-03-01T21:53:20.444Z,3.97
2019-03-01T21:58:29.758Z,4.54
2019-03-01T22:03:46.569Z,4.48
2019-03-01T22:13:51.812Z,3.82
2019-03-01T22:18:50.954Z,4.10
2019-03-01T22:24:02.506Z,4.05
2019-03-01T22:34:05.353Z,3.47
2019-03-01T22:39:17.544Z,2.82
2019-03-01T22:44:16.493Z,3.38
2019-03-01T22:49:28.672Z,3.21
2019-03-01T22:54:35.273Z,2.98
2019-03-01T22:59:47.260Z,3.51
2019-03-01T23:04:52.917Z,3.62
2019-03-01T23:10:01.904Z,3.04
2019-03-01T23:15:10.890Z,3.11
2019-03-01T23:20:19.903Z,2.84
2019-03-01T23:25:28.852Z,2.61
2019-03-01T23:30:38.205Z,2.70
2019-03-01T23:35:49.651Z,3.53
2019-03-01T23:40:55.927Z,4.22
2019-03-01T23:46:04.930Z,3.65
2019-03-01T23:51:13.992Z,4.17
2019-03-01T23:56:22.989Z,5.29
